Time;durP1;ratioP1;P1;durP2;ratioP2;P2;SDS_P1;SDS_P2;PMS_P1;PMS_P2;Temp;Humidity;BMP_temperature;BMP_pressure;BME280_temperature;BME280_humidity;BME280_pressure;Samples;Min_cycle;Max_cycle;Signal;HPM_P1;HPM_P2
2022/04/01 00:01:37;;;;;;;3.88;2.10;;;;;;;;;;5037660;28;20017;-52
2022/04/01 00:04:03;;;;;;;4.65;2.35;;;;;;;;;;5038893;28;20039;-48
2022/04/01 00:06:29;;;;;;;5.13;2.63;;;;;;;;;;5042646;28;20033;-48
2022/04/01 00:08:55;;;;;;;5.85;2.78;;;;;;;;;;5038755;28;20037;-48
2022/04/01 00:11:21;;;;;;;6.05;2.72;;;;;;;;;;5047682;28;20040;-47
2022/04/01 00:13:47;;;;;;;5.13;2.60;;;;;;;;;;5045586;28;20022;-52
2022/04/01 00:16:15;;;;;;;3.90;2.33;;;;;;;;;;5039038;28;20025;-52
2022/04/01 00:18:41;;;;;;;5.57;2.85;;;;;;;;;;5045140;28;20022;-48
2022/04/01 00:21:07;;;;;;;6.75;2.85;;;;;;;;;;5049831;28;20040;-48
2022/04/01 00:23:33;;;;;;;7.05;2.40;;;;;;;;;;5044036;28;20021;-50
2022/04/01 00:25:59;;;;;;;7.45;3.20;;;;;;;;;;5042006;28;20107;-48
2022/04/01 00:28:25;;;;;;;3.97;2.67;;;;;;;;;;5049024;28;20056;-48
2022/04/01 00:30:51;;;;;;;7.18;2.60;;;;;;;;;;5043146;28;20040;-48
2022/04/01 00:33:17;;;;;;;9.57;3.05;;;;;;;;;;5049108;28;20048;-48
2022/04/01 00:35:43;;;;;;;5.93;2.95;;;;;;;;;;5039561;28;20033;-50
2022/04/01 00:38:09;;;;;;;12.65;3.33;;;;;;;;;;5046820;28;20040;-48
2022/04/01 00:40:39;;;;;;;6.97;2.55;;;;;;;;;;5046817;28;20021;-48
2022/04/01 00:43:05;;;;;;;8.30;3.03;;;;;;;;;;5046511;28;20040;-48
2022/04/01 00:45:31;;;;;;;7.70;3.40;;;;;;;;;;5045802;28;20339;-49
2022/04/01 00:48:02;;;;;;;8.40;3.08;;;;;;;;;;5041003;28;20033;-49
2022/04/01 00:50:32;;;;;;;5.45;3.08;;;;;;;;;;5036981;28;20037;-49
2022/04/01 00:52:58;;;;;;;6.88;2.70;;;;;;;;;;5035446;28;20090;-50
2022/04/01 00:55:24;;;;;;;5.22;2.63;;;;;;;;;;5048259;28;20037;-51
2022/04/01 00:57:50;;;;;;;8.52;3.53;;;;;;;;;;5038737;28;20129;-49
2022/04/01 01:00:17;;;;;;;4.63;2.75;;;;;;;;;;5039289;28;20384;-48
2022/04/01 01:02:43;;;;;;;11.20;3.50;;;;;;;;;;5046233;28;20043;-49
2022/04/01 01:05:10;;;;;;;5.45;2.88;;;;;;;;;;5045033;28;20438;-49
2022/04/01 01:07:37;;;;;;;4.97;2.75;;;;;;;;;;5037818;28;20030;-48
2022/04/01 01:10:04;;;;;;;7.68;3.28;;;;;;;;;;5047688;28;20032;-52
2022/04/01 01:12:30;;;;;;;5.53;2.70;;;;;;;;;;5044000;28;20032;-50
2022/04/01 01:14:56;;;;;;;4.68;2.60;;;;;;;;;;5043881;28;20029;-49
2022/04/01 01:17:22;;;;;;;5.32;2.80;;;;;;;;;;5048669;28;20029;-49
2022/04/01 01:19:47;;;;;;;5.47;2.53;;;;;;;;;;5047349;28;20091;-52
2022/04/01 01:22:14;;;;;;;4.05;2.53;;;;;;;;;;5040126;28;20047;-48
2022/04/01 01:24:44;;;;;;;5.85;2.70;;;;;;;;;;5045857;28;20029;-48
2022/04/01 01:27:11;;;;;;;3.58;2.38;;;;;;;;;;5047431;28;20032;-50
2022/04/01 01:29:39;;;;;;;5.45;2.90;;;;;;;;;;5048564;28;20044;-50
2022/04/01 01:32:06;;;;;;;5.00;2.75;;;;;;;;;;5048967;28;20033;-48
2022/04/01 01:34:32;;;;;;;6.22;3.08;;;;;;;;;;5045469;28;20022;-52
2022/04/01 01:36:59;;;;;;;8.40;2.65;;;;;;;;;;5047763;28;20035;-49
2022/04/01 01:39:25;;;;;;;5.07;2.83;;;;;;;;;;5045535;28;20034;-48
2022/04/01 01:41:53;;;;;;;3.90;2.30;;;;;;;;;;5050620;28;20041;-49
2022/04/01 01:44:19;;;;;;;6.03;2.95;;;;;;;;;;5042539;28;20432;-52
2022/04/01 01:46:46;;;;;;;7.82;2.42;;;;;;;;;;5043953;28;20059;-49
2022/04/01 01:49:11;;;;;;;5.40;2.97;;;;;;;;;;5041611;28;20026;-51
2022/04/01 01:54:43;;;;;;;5.85;2.30;;;;;;;;;;5039624;28;20049;-47
2022/04/01 01:57:09;;;;;;;12.07;2.92;;;;;;;;;;5038491;28;20033;-49
2022/04/01 01:59:35;;;;;;;5.60;2.53;;;;;;;;;;5048020;28;20469;-52
2022/04/01 02:02:05;;;;;;;6.47;2.88;;;;;;;;;;5045609;28;20026;-51
2022/04/01 02:04:31;;;;;;;6.13;2.45;;;;;;;;;;5044000;28;20109;-51
2022/04/01 02:06:57;;;;;;;6.43;2.80;;;;;;;;;;5044178;28;20033;-48
2022/04/01 02:09:23;;;;;;;6.25;3.13;;;;;;;;;;5047533;28;20021;-51
2022/04/01 02:11:49;;;;;;;4.60;2.58;;;;;;;;;;5044071;28;20040;-48
2022/04/01 02:14:15;;;;;;;5.93;2.65;;;;;;;;;;5043259;28;20029;-47
2022/04/01 02:16:43;;;;;;;7.03;2.47;;;;;;;;;;5043197;28;20025;-48
2022/04/01 02:19:09;;;;;;;8.52;3.47;;;;;;;;;;5046243;28;20033;-48
2022/04/01 02:21:35;;;;;;;5.75;2.33;;;;;;;;;;5042269;28;20044;-49
2022/04/01 02:24:01;;;;;;;5.82;2.92;;;;;;;;;;5047443;28;20035;-49
2022/04/01 02:26:27;;;;;;;6.90;3.17;;;;;;;;;;5046656;28;20115;-48
2022/04/01 02:28:56;;;;;;;5.82;3.03;;;;;;;;;;5045083;28;20222;-48
2022/04/01 02:31:22;;;;;;;7.63;3.25;;;;;;;;;;5041408;28;20025;-48
2022/04/01 02:33:48;;;;;;;5.60;3.13;;;;;;;;;;5045462;28;20033;-49
2022/04/01 02:36:14;;;;;;;6.03;2.92;;;;;;;;;;5043631;28;20034;-50
2022/04/01 02:38:41;;;;;;;9.43;3.58;;;;;;;;;;5043871;28;20026;-53
2022/04/01 02:41:07;;;;;;;6.28;3.00;;;;;;;;;;5049982;28;20025;-51
2022/04/01 02:43:34;;;;;;;4.60;2.22;;;;;;;;;;5045456;28;20029;-48
2022/04/01 02:46:00;;;;;;;5.72;3.08;;;;;;;;;;5045457;28;20017;-49
2022/04/01 02:48:26;;;;;;;5.30;3.03;;;;;;;;;;5039921;28;20075;-48
2022/04/01 02:50:52;;;;;;;7.78;3.10;;;;;;;;;;5045963;28;20465;-53
2022/04/01 02:53:18;;;;;;;6.85;3.00;;;;;;;;;;5035767;28;20045;-48
2022/04/01 02:55:45;;;;;;;4.68;2.70;;;;;;;;;;5042057;28;20041;-48
2022/04/01 02:58:12;;;;;;;6.47;3.00;;;;;;;;;;5041479;28;20029;-47
2022/04/01 03:00:39;;;;;;;6.03;3.10;;;;;;;;;;5044053;28;20109;-48
2022/04/01 03:03:06;;;;;;;4.78;2.80;;;;;;;;;;5041522;28;20159;-48
2022/04/01 03:05:39;;;;;;;6.10;2.75;;;;;;;;;;5043299;28;20029;-47
2022/04/01 03:08:06;;;;;;;8.32;3.42;;;;;;;;;;5045070;28;20035;-49
2022/04/01 03:10:33;;;;;;;10.75;3.42;;;;;;;;;;5049628;28;20056;-48
2022/04/01 03:13:00;;;;;;;5.47;2.63;;;;;;;;;;5042508;28;20025;-48
2022/04/01 03:15:28;;;;;;;4.75;2.60;;;;;;;;;;5046705;28;21820;-49
2022/04/01 03:17:54;;;;;;;7.22;3.17;;;;;;;;;;5041334;28;20040;-49
2022/04/01 03:20:20;;;;;;;5.43;2.70;;;;;;;;;;5040050;28;20358;-49
2022/04/01 03:22:46;;;;;;;6.80;3.03;;;;;;;;;;5046521;28;20039;-51
2022/04/01 03:25:18;;;;;;;5.35;3.35;;;;;;;;;;5040246;28;20029;-52
2022/04/01 03:27:45;;;;;;;5.57;3.22;;;;;;;;;;5038217;28;20031;-53
2022/04/01 03:30:11;;;;;;;5.10;2.78;;;;;;;;;;5036589;28;20068;-50
2022/04/01 03:32:38;;;;;;;6.90;3.40;;;;;;;;;;5037438;28;20030;-50
2022/04/01 03:35:15;;;;;;;6.68;3.33;;;;;;;;;;5042511;28;20064;-51
2022/04/01 03:37:41;;;;;;;5.93;2.45;;;;;;;;;;5033212;28;20151;-50
2022/04/01 03:40:08;;;;;;;8.65;3.47;;;;;;;;;;5043446;28;20025;-47
2022/04/01 03:42:34;;;;;;;6.07;3.60;;;;;;;;;;5034271;28;20033;-50
2022/04/01 03:45:06;;;;;;;8.40;3.10;;;;;;;;;;5049823;28;20117;-49
2022/04/01 03:47:41;;;;;;;8.77;3.20;;;;;;;;;;5041779;28;20041;-51
2022/04/01 03:50:09;;;;;;;6.40;3.38;;;;;;;;;;5033721;28;20025;-48
2022/04/01 03:52:36;;;;;;;6.78;3.08;;;;;;;;;;5037429;28;20025;-48
2022/04/01 03:55:11;;;;;;;8.18;3.20;;;;;;;;;;5041516;28;20042;-47
2022/04/01 03:57:39;;;;;;;5.18;2.97;;;;;;;;;;5046863;28;20029;-50
2022/04/01 04:00:07;;;;;;;7.55;3.20;;;;;;;;;;5039279;28;20067;-48
2022/04/01 04:02:34;;;;;;;6.97;3.53;;;;;;;;;;5037437;28;20025;-50
2022/04/01 04:05:00;;;;;;;9.75;3.15;;;;;;;;;;5046955;28;20533;-53
2022/04/01 04:07:26;;;;;;;7.13;2.92;;;;;;;;;;5041832;28;20088;-50
2022/04/01 04:09:52;;;;;;;5.80;3.17;;;;;;;;;;5041611;28;20393;-47
2022/04/01 04:12:20;;;;;;;7.45;3.20;;;;;;;;;;5040207;28;20036;-50
2022/04/01 04:14:49;;;;;;;5.55;3.40;;;;;;;;;;5047188;28;20039;-49
2022/04/01 04:17:15;;;;;;;8.90;3.13;;;;;;;;;;5045656;28;20569;-48
2022/04/01 04:19:50;;;;;;;8.40;3.58;;;;;;;;;;5041964;28;20456;-49
2022/04/01 04:22:21;;;;;;;6.85;3.40;;;;;;;;;;5044717;28;20029;-48
2022/04/01 04:25:09;;;;;;;5.50;2.80;;;;;;;;;;5045305;28;20094;-48
2022/04/01 04:27:36;;;;;;;9.10;3.10;;;;;;;;;;5047361;28;20033;-49
2022/04/01 04:30:08;;;;;;;6.00;3.40;;;;;;;;;;5049094;28;20056;-50
2022/04/01 04:32:35;;;;;;;6.80;3.17;;;;;;;;;;5047535;28;20061;-49
2022/04/01 04:35:04;;;;;;;9.07;3.42;;;;;;;;;;5040544;28;20056;-47
2022/04/01 04:37:33;;;;;;;7.32;3.55;;;;;;;;;;5034451;28;20382;-49
2022/04/01 04:40:00;;;;;;;9.63;3.35;;;;;;;;;;5046549;28;20020;-48
2022/04/01 04:42:28;;;;;;;10.25;3.30;;;;;;;;;;5040198;28;20476;-49
2022/04/01 04:44:54;;;;;;;5.68;3.50;;;;;;;;;;5040113;28;20048;-48
2022/04/01 04:47:28;;;;;;;4.15;2.67;;;;;;;;;;5036832;28;20068;-49
2022/04/01 04:49:56;;;;;;;6.90;3.15;;;;;;;;;;5037741;28;20091;-51
2022/04/01 04:52:22;;;;;;;4.75;2.70;;;;;;;;;;5035809;28;20090;-50
2022/04/01 04:54:50;;;;;;;6.80;3.33;;;;;;;;;;5034884;28;20048;-47
2022/04/01 04:57:16;;;;;;;5.40;3.28;;;;;;;;;;5041395;28;20021;-48
2022/04/01 04:59:43;;;;;;;9.43;3.03;;;;;;;;;;5035695;28;20025;-47
2022/04/01 05:02:16;;;;;;;6.13;2.90;;;;;;;;;;5034472;28;20025;-48
2022/04/01 05:04:53;;;;;;;6.10;3.17;;;;;;;;;;5036700;28;20055;-48
2022/04/01 05:07:37;;;;;;;6.65;2.92;;;;;;;;;;5046076;28;20116;-49
2022/04/01 05:10:08;;;;;;;11.02;2.75;;;;;;;;;;5042114;28;20025;-48
2022/04/01 05:12:45;;;;;;;8.20;3.35;;;;;;;;;;5033921;28;20493;-49
2022/04/01 05:15:11;;;;;;;6.97;3.42;;;;;;;;;;5045354;28;20025;-48
2022/04/01 05:17:39;;;;;;;6.47;3.00;;;;;;;;;;5046136;28;20033;-52
2022/04/01 05:20:11;;;;;;;9.30;3.08;;;;;;;;;;5038489;28;20033;-49
2022/04/01 05:22:50;;;;;;;5.40;3.08;;;;;;;;;;5042518;28;20504;-52
2022/04/01 05:25:18;;;;;;;6.57;2.95;;;;;;;;;;5037914;28;20072;-49
2022/04/01 05:27:48;;;;;;;4.82;2.40;;;;;;;;;;5038725;28;20045;-49
2022/04/01 05:30:16;;;;;;;4.57;2.42;;;;;;;;;;5044619;28;20064;-49
2022/04/01 05:33:01;;;;;;;6.13;2.92;;;;;;;;;;5041285;28;20648;-48
2022/04/01 05:35:29;;;;;;;5.40;2.88;;;;;;;;;;5037415;28;20083;-47
2022/04/01 05:37:55;;;;;;;7.15;2.88;;;;;;;;;;5032346;28;20026;-48
2022/04/01 05:40:22;;;;;;;5.20;2.58;;;;;;;;;;5040446;28;20029;-47
2022/04/01 05:42:49;;;;;;;5.38;2.35;;;;;;;;;;5039622;28;20116;-50
2022/04/01 05:45:16;;;;;;;6.80;3.53;;;;;;;;;;5043323;28;20036;-52
2022/04/01 05:47:42;;;;;;;5.90;2.78;;;;;;;;;;5045764;28;20036;-49
2022/04/01 05:50:08;;;;;;;6.40;2.50;;;;;;;;;;5045619;28;20036;-49
2022/04/01 05:52:36;;;;;;;6.43;3.55;;;;;;;;;;5041511;28;20488;-49
2022/04/01 05:55:03;;;;;;;6.15;2.53;;;;;;;;;;5032778;28;20045;-48
2022/04/01 05:57:29;;;;;;;6.88;3.00;;;;;;;;;;5037593;28;20048;-48
2022/04/01 05:59:55;;;;;;;6.47;2.78;;;;;;;;;;5040971;28;20030;-47
2022/04/01 06:02:48;;;;;;;4.60;2.22;;;;;;;;;;5037560;28;20048;-53
2022/04/01 06:05:18;;;;;;;6.20;2.50;;;;;;;;;;5040836;28;20413;-47
2022/04/01 06:07:48;;;;;;;7.07;3.20;;;;;;;;;;5048549;28;20040;-52
2022/04/01 06:10:20;;;;;;;6.80;2.67;;;;;;;;;;5039669;28;20025;-47
2022/04/01 06:12:47;;;;;;;4.78;2.63;;;;;;;;;;5043606;28;20032;-49
2022/04/01 06:15:27;;;;;;;6.13;3.00;;;;;;;;;;5036298;28;20032;-50
2022/04/01 06:18:01;;;;;;;9.98;2.67;;;;;;;;;;5039695;28;20493;-47
2022/04/01 06:20:28;;;;;;;13.07;2.65;;;;;;;;;;5042338;28;20112;-48
2022/04/01 06:23:20;;;;;;;4.03;2.38;;;;;;;;;;5049173;28;20178;-48
2022/04/01 06:25:51;;;;;;;8.10;3.00;;;;;;;;;;5022087;28;20043;-48
2022/04/01 06:28:26;;;;;;;7.07;2.70;;;;;;;;;;5045809;28;20035;-47
2022/04/01 06:30:54;;;;;;;4.78;2.08;;;;;;;;;;5040820;28;20060;-48
2022/04/01 06:33:26;;;;;;;3.72;2.50;;;;;;;;;;5044832;28;20059;-48
2022/04/01 06:36:05;;;;;;;10.55;2.80;;;;;;;;;;5037685;28;20028;-49
2022/04/01 06:38:43;;;;;;;6.80;2.58;;;;;;;;;;5037947;28;20028;-49
2022/04/01 06:41:11;;;;;;;4.88;2.50;;;;;;;;;;5037816;28;20367;-48
2022/04/01 06:43:37;;;;;;;5.57;2.65;;;;;;;;;;5050475;28;20033;-48
2022/04/01 06:46:05;;;;;;;5.60;2.35;;;;;;;;;;5053355;28;20419;-50
2022/04/01 06:48:31;;;;;;;4.30;2.25;;;;;;;;;;5049634;28;20031;-48
2022/04/01 06:50:57;;;;;;;7.03;2.35;;;;;;;;;;5047086;28;20108;-52
2022/04/01 06:53:23;;;;;;;4.53;2.03;;;;;;;;;;5043992;28;20037;-49
2022/04/01 06:55:49;;;;;;;2.92;2.15;;;;;;;;;;5046939;28;20049;-47
2022/04/01 06:58:16;;;;;;;3.75;1.92;;;;;;;;;;5039786;28;20025;-48
2022/04/01 07:00:42;;;;;;;3.63;1.98;;;;;;;;;;5043984;28;20075;-48
2022/04/01 07:03:08;;;;;;;11.48;3.15;;;;;;;;;;5044337;28;20408;-48
2022/04/01 07:05:35;;;;;;;4.03;2.45;;;;;;;;;;5036258;28;20037;-51
2022/04/01 07:08:04;;;;;;;3.60;2.20;;;;;;;;;;5053321;28;20029;-48
2022/04/01 07:10:30;;;;;;;4.80;1.88;;;;;;;;;;5040333;28;20165;-48
2022/04/01 07:12:56;;;;;;;4.03;2.20;;;;;;;;;;5040075;28;20037;-47
2022/04/01 07:15:22;;;;;;;7.15;2.63;;;;;;;;;;5039125;28;20025;-49
2022/04/01 07:17:48;;;;;;;5.25;2.72;;;;;;;;;;5051788;28;20025;-49
2022/04/01 07:20:15;;;;;;;4.97;2.20;;;;;;;;;;5044358;28;20032;-48
2022/04/01 07:22:42;;;;;;;5.60;2.17;;;;;;;;;;5051295;28;20025;-48
2022/04/01 07:25:09;;;;;;;5.57;2.28;;;;;;;;;;5050495;28;20045;-49
2022/04/01 07:27:35;;;;;;;7.50;2.40;;;;;;;;;;5039942;28;20025;-47
2022/04/01 07:30:02;;;;;;;3.67;1.98;;;;;;;;;;5049161;28;20217;-48
2022/04/01 07:32:32;;;;;;;3.63;2.03;;;;;;;;;;5041694;28;20071;-50
2022/04/01 07:34:58;;;;;;;4.88;2.20;;;;;;;;;;5035843;28;20025;-49
2022/04/01 07:37:24;;;;;;;5.53;2.10;;;;;;;;;;5044011;28;20159;-48
2022/04/01 07:39:51;;;;;;;5.22;2.42;;;;;;;;;;5046732;28;20028;-47
2022/04/01 07:42:18;;;;;;;5.60;1.90;;;;;;;;;;5043118;28;20029;-48
2022/04/01 07:44:44;;;;;;;4.63;2.25;;;;;;;;;;5042271;28;20085;-48
2022/04/01 07:47:10;;;;;;;4.35;1.73;;;;;;;;;;5039470;28;20036;-48
2022/04/01 07:49:37;;;;;;;4.03;2.00;;;;;;;;;;5040749;28;20103;-51
2022/04/01 07:52:04;;;;;;;4.80;2.30;;;;;;;;;;5050189;28;20029;-49
2022/04/01 07:54:30;;;;;;;4.13;1.95;;;;;;;;;;5036820;28;20083;-48
2022/04/01 07:56:56;;;;;;;4.25;1.85;;;;;;;;;;5044503;28;20025;-47
2022/04/01 07:59:24;;;;;;;10.63;1.80;;;;;;;;;;5039262;28;20029;-49
2022/04/01 08:01:50;;;;;;;2.92;1.70;;;;;;;;;;5039484;28;20033;-51
2022/04/01 08:04:16;;;;;;;5.05;1.95;;;;;;;;;;5047423;28;20044;-47
2022/04/01 08:06:42;;;;;;;3.13;1.83;;;;;;;;;;5052613;28;20116;-49
2022/04/01 08:09:08;;;;;;;6.05;1.90;;;;;;;;;;5045446;28;20365;-49
2022/04/01 08:11:34;;;;;;;3.78;1.80;;;;;;;;;;5049219;28;20063;-50
2022/04/01 08:14:00;;;;;;;5.38;1.75;;;;;;;;;;5050688;28;20036;-48
2022/04/01 08:16:26;;;;;;;3.92;1.80;;;;;;;;;;5042925;28;20041;-47
2022/04/01 08:18:52;;;;;;;4.60;2.03;;;;;;;;;;5048343;28;20021;-48
2022/04/01 08:21:18;;;;;;;2.47;1.70;;;;;;;;;;5052264;28;20033;-48
2022/04/01 08:23:44;;;;;;;3.30;1.75;;;;;;;;;;5051890;28;20094;-49
2022/04/01 08:26:11;;;;;;;3.03;1.50;;;;;;;;;;5042265;28;20500;-48
2022/04/01 08:28:37;;;;;;;4.28;1.73;;;;;;;;;;5051575;28;20035;-49
2022/04/01 08:31:03;;;;;;;3.20;1.92;;;;;;;;;;5044322;28;20029;-49
2022/04/01 08:33:29;;;;;;;2.90;1.60;;;;;;;;;;5032190;28;20103;-51
2022/04/01 08:35:56;;;;;;;4.80;1.88;;;;;;;;;;5047649;28;20029;-47
2022/04/01 08:38:22;;;;;;;3.55;1.50;;;;;;;;;;5035898;28;20059;-49
2022/04/01 08:40:48;;;;;;;3.20;1.40;;;;;;;;;;5034408;28;20053;-48
2022/04/01 08:43:14;;;;;;;2.65;1.48;;;;;;;;;;5050842;28;20025;-50
2022/04/01 08:45:40;;;;;;;2.80;1.42;;;;;;;;;;5049064;28;20052;-49
2022/04/01 08:48:07;;;;;;;2.83;1.40;;;;;;;;;;5037985;28;20025;-49
2022/04/01 08:50:33;;;;;;;3.22;1.65;;;;;;;;;;5039446;28;20028;-48
2022/04/01 08:53:00;;;;;;;5.80;1.52;;;;;;;;;;5041479;28;20025;-48
2022/04/01 08:55:26;;;;;;;4.13;1.52;;;;;;;;;;5037869;28;20072;-49
2022/04/01 08:57:52;;;;;;;4.07;1.63;;;;;;;;;;5051550;28;20423;-50
2022/04/01 09:00:18;;;;;;;2.40;1.40;;;;;;;;;;5049844;28;20041;-48
2022/04/01 09:02:45;;;;;;;3.17;1.60;;;;;;;;;;5041894;28;20028;-50
2022/04/01 09:05:12;;;;;;;3.25;1.48;;;;;;;;;;5049987;28;20469;-48
2022/04/01 09:07:38;;;;;;;5.75;1.80;;;;;;;;;;5037681;28;20501;-50
2022/04/01 09:10:05;;;;;;;3.92;1.73;;;;;;;;;;5049875;28;20041;-48
2022/04/01 09:12:31;;;;;;;5.07;1.58;;;;;;;;;;5049108;28;20025;-51
2022/04/01 09:14:57;;;;;;;4.05;1.58;;;;;;;;;;5045942;28;20503;-48
2022/04/01 09:17:39;;;;;;;3.63;1.40;;;;;;;;;;5036744;28;20038;-49
2022/04/01 09:20:09;;;;;;;9.27;2.28;;;;;;;;;;5037845;28;20446;-48
2022/04/01 09:22:35;;;;;;;4.68;2.17;;;;;;;;;;5039610;28;20025;-50
2022/04/01 09:25:02;;;;;;;2.13;1.50;;;;;;;;;;5045496;28;20037;-49
2022/04/01 09:27:38;;;;;;;4.18;1.33;;;;;;;;;;5048246;28;20040;-48
2022/04/01 09:30:04;;;;;;;4.20;1.52;;;;;;;;;;5040095;28;20033;-48
2022/04/01 09:32:59;;;;;;;4.13;1.60;;;;;;;;;;5052278;28;20025;-47
2022/04/01 09:35:27;;;;;;;4.15;1.40;;;;;;;;;;5043084;28;20045;-48
2022/04/01 09:38:04;;;;;;;6.53;2.10;;;;;;;;;;5045170;28;20048;-48
2022/04/01 09:40:30;;;;;;;2.40;1.50;;;;;;;;;;5045482;28;20022;-48
2022/04/01 09:42:59;;;;;;;3.13;1.75;;;;;;;;;;5044978;28;20108;-48
2022/04/01 09:45:30;;;;;;;2.55;1.50;;;;;;;;;;5044518;28;20060;-48
2022/04/01 09:48:00;;;;;;;5.07;1.58;;;;;;;;;;5052153;28;20037;-50
2022/04/01 09:50:36;;;;;;;4.72;1.33;;;;;;;;;;5045902;28;20021;-47
2022/04/01 09:53:07;;;;;;;9.35;1.60;;;;;;;;;;5044937;28;20469;-49
2022/04/01 09:55:40;;;;;;;6.63;1.60;;;;;;;;;;5046413;28;20045;-49
2022/04/01 09:58:07;;;;;;;3.53;1.80;;;;;;;;;;5045945;28;20029;-47
2022/04/01 10:00:33;;;;;;;6.47;1.88;;;;;;;;;;5051296;28;20381;-49
2022/04/01 10:02:59;;;;;;;4.22;1.70;;;;;;;;;;5053344;28;20068;-48
2022/04/01 10:05:28;;;;;;;2.78;1.63;;;;;;;;;;5041083;28;20057;-50
2022/04/01 10:07:54;;;;;;;3.28;1.63;;;;;;;;;;5046299;28;20037;-49
2022/04/01 10:10:20;;;;;;;6.18;2.05;;;;;;;;;;5040238;28;20430;-48
2022/04/01 10:12:47;;;;;;;4.57;1.27;;;;;;;;;;5042889;28;20653;-50
2022/04/01 10:15:14;;;;;;;3.08;1.85;;;;;;;;;;5053270;28;20535;-49
2022/04/01 10:17:41;;;;;;;2.90;1.58;;;;;;;;;;5043091;28;20026;-47
2022/04/01 10:20:08;;;;;;;5.45;2.00;;;;;;;;;;5040361;28;20036;-47
2022/04/01 10:22:35;;;;;;;7.68;1.50;;;;;;;;;;5053161;28;20017;-49
2022/04/01 10:25:13;;;;;;;3.47;1.85;;;;;;;;;;5041321;28;20025;-48
2022/04/01 10:27:40;;;;;;;4.28;1.55;;;;;;;;;;5054098;28;20033;-48
2022/04/01 10:30:07;;;;;;;2.50;1.40;;;;;;;;;;5046034;28;20102;-49
2022/04/01 10:32:38;;;;;;;2.85;1.80;;;;;;;;;;5052157;28;20120;-48
2022/04/01 10:35:05;;;;;;;4.30;1.73;;;;;;;;;;5041501;28;20051;-50
2022/04/01 10:37:31;;;;;;;4.03;1.50;;;;;;;;;;5043579;28;20025;-48
2022/04/01 10:39:59;;;;;;;4.60;1.60;;;;;;;;;;5043794;28;20645;-48
2022/04/01 10:42:27;;;;;;;4.63;2.22;;;;;;;;;;5047585;28;20029;-48
2022/04/01 10:44:57;;;;;;;4.30;2.03;;;;;;;;;;5053791;28;20381;-48
2022/04/01 10:47:24;;;;;;;4.25;1.52;;;;;;;;;;5036500;28;20084;-48
2022/04/01 10:52:35;;;;;;;2.45;1.38;;;;;;;;;;5040502;28;20052;-48
2022/04/01 10:55:05;;;;;;;5.20;1.60;;;;;;;;;;5043412;28;20037;-51
2022/04/01 10:57:32;;;;;;;2.63;1.52;;;;;;;;;;5038969;28;20037;-51
2022/04/01 11:00:04;;;;;;;3.10;1.60;;;;;;;;;;5052171;28;20035;-48
2022/04/01 11:02:31;;;;;;;4.00;1.73;;;;;;;;;;5052970;28;20032;-47
2022/04/01 11:05:00;;;;;;;3.70;1.30;;;;;;;;;;5044952;28;20033;-49
2022/04/01 11:07:26;;;;;;;16.73;1.63;;;;;;;;;;5038258;28;20041;-49
2022/04/01 11:09:53;;;;;;;4.30;1.05;;;;;;;;;;5043519;28;20040;-48
2022/04/01 11:12:19;;;;;;;3.28;1.63;;;;;;;;;;5046214;28;20025;-48
2022/04/01 11:14:57;;;;;;;3.45;1.73;;;;;;;;;;5040210;28;20033;-49
2022/04/01 11:17:30;;;;;;;4.03;1.90;;;;;;;;;;5051426;28;20025;-49
2022/04/01 11:20:06;;;;;;;5.75;1.38;;;;;;;;;;5037977;28;20025;-49
2022/04/01 11:22:47;;;;;;;4.70;1.67;;;;;;;;;;5046653;28;20037;-48
2022/04/01 11:25:35;;;;;;;4.10;1.70;;;;;;;;;;5048807;28;20508;-48
2022/04/01 11:28:06;;;;;;;6.60;1.45;;;;;;;;;;5052946;28;20035;-48
2022/04/01 11:30:36;;;;;;;5.63;1.30;;;;;;;;;;5053574;28;20032;-48
2022/04/01 11:33:06;;;;;;;2.78;1.42;;;;;;;;;;5048195;28;20379;-49
2022/04/01 11:35:35;;;;;;;2.28;1.00;;;;;;;;;;5034407;28;20484;-51
2022/04/01 11:38:02;;;;;;;2.60;1.10;;;;;;;;;;5042333;28;20085;-51
2022/04/01 11:40:29;;;;;;;3.47;1.50;;;;;;;;;;5040713;28;20032;-52
2022/04/01 11:43:02;;;;;;;6.18;1.73;;;;;;;;;;5048564;28;20091;-51
2022/04/01 11:45:29;;;;;;;4.97;1.37;;;;;;;;;;5048552;28;20032;-47
2022/04/01 11:47:55;;;;;;;2.50;1.13;;;;;;;;;;5034172;28;20048;-51
2022/04/01 11:50:22;;;;;;;4.85;1.25;;;;;;;;;;5048672;28;20032;-48
2022/04/01 11:52:53;;;;;;;4.35;1.42;;;;;;;;;;5045040;28;20063;-50
2022/04/01 11:55:28;;;;;;;2.63;1.30;;;;;;;;;;5050983;28;20491;-48
2022/04/01 11:57:56;;;;;;;5.30;1.60;;;;;;;;;;5044261;28;20037;-50
2022/04/01 12:00:24;;;;;;;2.65;1.17;;;;;;;;;;5044228;28;20503;-50
2022/04/01 12:02:51;;;;;;;3.38;1.38;;;;;;;;;;5046636;28;20021;-48
2022/04/01 12:05:18;;;;;;;4.75;1.83;;;;;;;;;;5050356;28;20052;-49
2022/04/01 12:10:39;;;;;;;3.55;1.10;;;;;;;;;;5042723;28;20048;-53
2022/04/01 12:13:06;;;;;;;4.10;1.40;;;;;;;;;;5042057;28;20068;-51
2022/04/01 12:15:39;;;;;;;1.85;0.85;;;;;;;;;;5046979;28;20033;-49
2022/04/01 12:18:10;;;;;;;2.65;1.23;;;;;;;;;;5036825;28;20040;-48
2022/04/01 12:20:40;;;;;;;4.60;1.20;;;;;;;;;;5043538;28;20029;-48
2022/04/01 12:23:06;;;;;;;3.53;1.10;;;;;;;;;;5044603;28;20681;-48
2022/04/01 12:25:33;;;;;;;4.13;1.20;;;;;;;;;;5043054;28;20393;-49
2022/04/01 12:28:01;;;;;;;1.75;1.23;;;;;;;;;;5052471;28;20032;-48
2022/04/01 12:30:33;;;;;;;2.58;1.23;;;;;;;;;;5045645;28;20416;-50
2022/04/01 12:33:01;;;;;;;2.17;1.00;;;;;;;;;;5044695;28;20025;-50
2022/04/01 12:35:27;;;;;;;3.78;1.52;;;;;;;;;;5047901;28;20485;-49
2022/04/01 12:38:03;;;;;;;5.25;1.55;;;;;;;;;;5052435;28;20029;-50
2022/04/01 12:40:33;;;;;;;5.47;1.02;;;;;;;;;;5049898;28;20393;-51
2022/04/01 12:43:00;;;;;;;3.50;1.20;;;;;;;;;;5043738;28;20045;-49
2022/04/01 12:45:26;;;;;;;4.75;1.02;;;;;;;;;;5052274;28;20029;-49
2022/04/01 12:47:51;;;;;;;3.15;1.30;;;;;;;;;;5033591;28;20030;-50
2022/04/01 12:50:30;;;;;;;1.55;0.80;;;;;;;;;;5032719;28;20029;-53
2022/04/01 12:53:08;;;;;;;3.53;1.05;;;;;;;;;;5044529;28;20028;-51
2022/04/01 12:55:34;;;;;;;4.30;1.27;;;;;;;;;;5038137;28;20053;-51
2022/04/01 12:58:00;;;;;;;2.28;1.00;;;;;;;;;;5037347;28;20133;-49
2022/04/01 13:00:26;;;;;;;5.32;1.98;;;;;;;;;;5041926;28;20420;-48
2022/04/01 13:02:52;;;;;;;2.72;1.30;;;;;;;;;;5032027;28;20381;-49
2022/04/01 13:05:18;;;;;;;3.00;1.40;;;;;;;;;;5039819;28;20032;-54
2022/04/01 13:07:46;;;;;;;3.38;1.33;;;;;;;;;;5041360;28;20061;-53
2022/04/01 13:10:13;;;;;;;3.70;1.50;;;;;;;;;;5037809;28;20033;-48
2022/04/01 13:12:40;;;;;;;5.00;1.48;;;;;;;;;;5041218;28;20021;-53
2022/04/01 13:15:08;;;;;;;3.58;1.30;;;;;;;;;;5051823;28;20070;-49
2022/04/01 13:17:51;;;;;;;2.97;1.58;;;;;;;;;;5039418;28;20052;-50
2022/04/01 13:20:20;;;;;;;2.80;1.42;;;;;;;;;;5047751;28;20385;-53
2022/04/01 13:22:46;;;;;;;3.10;1.10;;;;;;;;;;5039511;28;20029;-48
2022/04/01 13:25:13;;;;;;;2.97;1.40;;;;;;;;;;5045335;28;20479;-48
2022/04/01 13:27:39;;;;;;;2.17;1.08;;;;;;;;;;5042686;28;20025;-50
2022/04/01 13:30:05;;;;;;;1.88;1.20;;;;;;;;;;5050775;28;20119;-48
2022/04/01 13:32:31;;;;;;;2.38;1.35;;;;;;;;;;5055479;28;20107;-48
2022/04/01 13:34:57;;;;;;;2.88;1.30;;;;;;;;;;5044202;28;20021;-50
2022/04/01 13:37:23;;;;;;;2.45;1.48;;;;;;;;;;5054586;28;20032;-50
2022/04/01 13:39:49;;;;;;;6.32;1.30;;;;;;;;;;5055700;28;20027;-50
2022/04/01 13:42:16;;;;;;;4.32;1.20;;;;;;;;;;5050246;28;20139;-50
2022/04/01 13:44:42;;;;;;;3.42;1.17;;;;;;;;;;5055499;28;20121;-49
2022/04/01 13:47:11;;;;;;;6.07;1.38;;;;;;;;;;5052402;28;20487;-49
2022/04/01 13:49:37;;;;;;;3.30;1.50;;;;;;;;;;5040693;28;20061;-51
2022/04/01 13:52:03;;;;;;;3.22;1.35;;;;;;;;;;5043649;28;20480;-49
2022/04/01 13:54:29;;;;;;;4.13;1.23;;;;;;;;;;5054536;28;20028;-49
2022/04/01 13:56:55;;;;;;;4.82;1.35;;;;;;;;;;5055309;28;20469;-49
2022/04/01 13:59:21;;;;;;;2.58;1.42;;;;;;;;;;5048224;28;20027;-49
2022/04/01 14:01:48;;;;;;;8.80;1.52;;;;;;;;;;5044845;28;20096;-48
2022/04/01 14:04:14;;;;;;;1.88;1.20;;;;;;;;;;5050479;28;20022;-48
2022/04/01 14:06:41;;;;;;;2.50;1.13;;;;;;;;;;5046209;28;20033;-49
2022/04/01 14:09:08;;;;;;;9.38;1.48;;;;;;;;;;5044009;28;20038;-48
2022/04/01 14:11:35;;;;;;;2.65;1.42;;;;;;;;;;5047887;28;20026;-48
2022/04/01 14:14:01;;;;;;;2.95;1.10;;;;;;;;;;5042954;28;20063;-50
2022/04/01 14:16:27;;;;;;;4.85;1.35;;;;;;;;;;5044279;28;20039;-50
2022/04/01 14:18:53;;;;;;;2.97;1.05;;;;;;;;;;5038024;28;20033;-48
2022/04/01 14:21:21;;;;;;;3.78;1.30;;;;;;;;;;5049652;28;20026;-50
2022/04/01 14:23:47;;;;;;;2.95;1.40;;;;;;;;;;5040113;28;20043;-48
2022/04/01 14:26:13;;;;;;;3.20;1.33;;;;;;;;;;5043621;28;20034;-49
2022/04/01 14:28:40;;;;;;;2.15;1.02;;;;;;;;;;5047055;28;20029;-48
2022/04/01 14:31:07;;;;;;;3.40;1.48;;;;;;;;;;5041636;28;20033;-49
2022/04/01 14:33:33;;;;;;;3.42;1.48;;;;;;;;;;5042425;28;20067;-49
2022/04/01 14:35:59;;;;;;;3.97;1.55;;;;;;;;;;5048008;28;20090;-53
2022/04/01 14:38:26;;;;;;;3.78;1.50;;;;;;;;;;5037496;28;20108;-48
2022/04/01 14:40:53;;;;;;;2.13;1.00;;;;;;;;;;5037742;28;20033;-48
2022/04/01 14:43:19;;;;;;;1.60;1.08;;;;;;;;;;5039315;28;20026;-48
2022/04/01 14:45:45;;;;;;;2.22;1.08;;;;;;;;;;5039733;28;20052;-48
2022/04/01 14:48:11;;;;;;;3.10;0.90;;;;;;;;;;5046911;28;20075;-49
2022/04/01 14:50:37;;;;;;;4.97;1.40;;;;;;;;;;5052195;28;20021;-48
2022/04/01 14:53:04;;;;;;;2.83;1.40;;;;;;;;;;5039208;28;20022;-48
2022/04/01 14:55:30;;;;;;;3.53;1.63;;;;;;;;;;5049094;28;20037;-49
2022/04/01 14:57:56;;;;;;;2.30;1.15;;;;;;;;;;5044293;28;20125;-48